ADDS METAR Data INFO
IDs: Format: Raw Decoded Include TAF

Data at: 0506 UTC 23 May 2017

KDWH 230453Z 03007KT 360V060 10SM OVC013 20/17 A2989 RMK AO2 SLP118 T02000172
KDWH 230353Z 02006KT 10SM OVC011 20/18 A2989 RMK AO2 SLP119 T02000178
KDWH 230253Z 01007KT 10SM OVC011 20/18 A2988 RMK AO2 SLP117 T02000178 53004
KDWH 230153Z 36007KT 10SM OVC012 21/18 A2988 RMK AO2 SLP115 T02060178
KDWH 230053Z 01006KT 10SM OVC012 21/18 A2987 RMK AO2 SLP111 T02110183
KDWH 222353Z 36004KT 10SM OVC012 22/19 A2987 RMK AO2 SLP113 60048 T02170189 10233 20189 56013
KDWH 222253Z 35007KT 10SM OVC013 23/20 A2988 RMK AO2 SLP115 T02280200
KDWH 222153Z 35005KT 10SM OVC008 22/20 A2989 RMK AO2 RAB10E29 SLP120 P0000 T02220200
KDWH 222053Z 35006KT 10SM BKN005 BKN031 OVC050 21/19 A2991 RMK AO2 RAE25 SLP126 P0000 60048 T02110194 56023
KDWH 222018Z 36006KT 10SM -RA BKN005 BKN031 OVC050 21/20 A2992 RMK AO2 P0000 T02110200
KDWH 221953Z 36006KT 2 1/2SM -RA BR BKN005 BKN031 OVC050 21/20 A2993 RMK AO2 SLP133 P0005 T02060200
KDWH 221926Z VRB04KT 2 1/2SM -RA BR BKN005 BKN031 OVC050 20/19 A2994 RMK AO2 P0003 T02000194
KDWH 221900Z VRB04KT 9SM -RA BKN005 BKN031 OVC050 20/19 A2995 RMK AO2 P0001 T02000194
KDWH 221853Z VRB06KT 2SM -RA BR BKN005 BKN031 OVC050 19/19 A2995 RMK AO2 SLP139 P0043 T01940189
KDWH 221753Z 01007KT 1 3/4SM RA BR BKN005 OVC016 19/18 A2998 RMK AO2 SLP149 P0020 60069 T01940183 10250 20194 50009
KDWH 221717Z VRB03G14KT 1 3/4SM -RA BR BKN005 OVC016 19/18 A2998 RMK AO2 P0013 T01940183
KDWH 221710Z 34008G19KT 300V010 2 1/2SM -RA BR SCT005 OVC016 19/18 A2997 RMK AO2 P0013 T01940183
KDWH 221708Z 34009G19KT 1 3/4SM -RA BR BKN005 OVC016 19/18 A2998 RMK AO2 P0013 T01940183
KDWH 221659Z 34008KT 3/4SM +RA BR BKN005 OVC012 19/19 A2998 RMK AO2 P0007 T01940189
KDWH 221653Z 34009G16KT 2SM RA BR BKN006 BKN017 OVC021 19/19 A2998 RMK AO2 RAB22 SLP151 P0041 T01940189
KDWH 221630Z 30008KT 2SM +RA BR BKN006 BKN017 OVC021 22/20 A2996 RMK AO2 RAB22 P0008 T02170200
KDWH 221553Z 15006KT 10SM BKN012 BKN019 OVC026 24/22 A2996 RMK AO2 SLP142 T02440222
KDWH 221453Z 14006KT 10SM BKN013 23/22 A2995 RMK AO2 RAE24 SLP140 P0001 60008 T02330217 56007
KDWH 221353Z 14006KT 9SM -RA BKN009 OVC018 22/21 A2996 RMK AO2 SLP142 P0003 T02220211
KDWH 221253Z 13009KT 5SM RA BR BKN009 OVC016 23/22 A2997 RMK AO2 LTG DSNT E RAB10E20B38 SLP145 P0004 T02280217
KDWH 221153Z 08005KT 9SM BKN009 OVC014 23/22 A2997 RMK AO2 LTG DSNT SE AND S CIG 007V011 SLP147 60005 70006 T02280217 10228 20222 55005
KDWH 221143Z 09005KT 9SM BKN011 OVC022 22/22 A2998 RMK AO2 LTG DSNT SE AND S T02220217
KDWH 221053Z AUTO 09006KT 10SM OVC007 22/21 A2996 RMK AO2 LTG DSNT S RAE07 CIG 005V012 SLP143 P0000 T02220211
KDWH 221020Z AUTO 08006KT 10SM BKN008 OVC018 22/21 A2997 RMK AO2 RAE07 CIG 006V013 P0000 T02220211
KDWH 221007Z AUTO 08006KT 10SM OVC010 22/21 A2997 RMK AO2 RAE07 CIG 007V014 P0000 T02220211
KDWH 220953Z AUTO 09006KT 7SM -RA OVC009 22/21 A2998 RMK AO2 SLP150 P0005 T02220211
KDWH 220919Z AUTO 07006KT 10SM -RA OVC009 22/21 A2999 RMK AO2 P0000 T02220211
KDWH 220853Z AUTO 07005KT 10SM -RA OVC010 22/21 A2999 RMK AO2 RAB47 SLP153 P0000 60000 T02220206 58019
KDWH 220817Z AUTO 06005KT 10SM BKN011 OVC016 23/21 A3001 RMK AO2 T02280206
KDWH 220807Z AUTO 05006KT 10SM OVC015 23/21 A3001 RMK AO2 LTG DSNT E T02280206
KDWH 220753Z AUTO 07007G14KT 050V120 10SM OVC013 23/21 A3002 RMK AO2 LTG DSNT E SLP163 T02280206
KDWH 220653Z AUTO 06005KT 10SM BKN012 OVC018 23/21 A3003 RMK AO2 SLP165 T02280206
KDWH 220637Z AUTO VRB05KT 10SM BKN014 OVC031 23/21 A3002 RMK AO2 T02280206
KDWH 220553Z AUTO 04004KT 10SM FEW010 BKN034 23/21 A3004 RMK AO2 SLP171 60000 T02280206 10250 20228 403060228 50010
KDWH 220527Z AUTO 07004KT 10SM FEW011 OVC034 23/21 A3005 RMK AO2 T02280211
KDWH 220453Z AUTO VRB04KT 10SM BKN026 23/21 A3005 RMK AO2 SLP173 T02330206
KDWH 220445Z AUTO 06005KT 10SM FEW019 BKN026 23/21 A3005 RMK AO2 T02280206
KDWH 220437Z AUTO 07005KT 10SM SCT019 SCT024 23/21 A3005 RMK AO2 T02280206
KDWH 220429Z AUTO 07007KT 10SM BKN019 23/21 A3005 RMK AO2 T02330206
KDWH 220353Z AUTO 08009KT 10SM CLR 23/20 A3004 RMK AO2 SLP170 T02330200
KDWH 220253Z AUTO 05010G17KT 10SM BKN035 BKN049 24/21 A3002 RMK AO2 LTG DSNT N RAB02E19 SLP161 P0000 60000 T02390206 58000
KDWH 220230Z 05006KT 10SM BKN040 OVC060 24/21 A3003 RMK AO2 LTG DSNT N AND NW RAB02E19 P0000 T02440206
KDWH 220212Z 08004KT 10SM VCTS -RA FEW035 BKN046 OVC055 24/21 A3004 RMK AO2 LTG DSNT N AND NW RAB02 P0000 T02440206
KDWH 220153Z 06003KT 10SM SCT049 BKN060 BKN110 24/21 A3004 RMK AO2 LTG DSNT ALQDS SLP170 T02440206
KDWH 220149Z 01003KT 10SM SCT049 BKN060 BKN095 24/21 A3004 RMK AO2 LTG DSNT E AND SE AND W
KDWH 220134Z 07004KT 10SM VCTS BKN047 BKN065 OVC095 24/21 A3004 RMK AO2 T02440206
KDWH 220053Z 07005KT 10SM BKN048 BKN070 OVC080 25/21 A3002 RMK AO2 LTG DSNT S AND SW SLP162 T02500206
KDWH 212353Z 07007KT 020V100 10SM BKN021 OVC060 25/21 A3000 RMK AO2 SLP155 60001 T02500206 10300 20250 55010
KDWH 212308Z 04007KT 10SM BKN021 OVC044 26/21 A2999 RMK AO2 T02560206
KDWH 212253Z 03011G16KT 10SM SCT019 BKN044 26/21 A2999 RMK AO2 SLP152 T02560206
KDWH 212205Z 03010G20KT 10SM BKN016 25/21 A2997 RMK AO2 T02500206
KDWH 212153Z 04011G16KT 10SM FEW018 26/21 A3000 RMK AO2 RAE2059 SLP155 P0000 T02560211
KDWH 212053Z 04010G17KT 10SM -RA SCT033 BKN044 BKN100 27/22 A3003 RMK AO2 LTG DSNT S AND SW RAB11 SLP165 P0001 60001 T02720217 53002
KDWH 212036Z 03009G14KT 10SM -RA SCT027 SCT032 BKN120 28/22 A3001 RMK AO2 LTG DSNT SW RAB11 P0001 T02780222
KDWH 212000Z VRB05KT 10SM BKN027 OVC034 28/22 A2999 RMK AO2 LTG DSNT S AND SW T02830217
KDWH 211953Z 02010KT 10SM FEW029 BKN040 28/22 A2999 RMK AO2 LTG DSNT S AND SW RAE17 SLP151 P0000 T02830222
KDWH 211853Z 03006KT 10SM -RA FEW029 BKN040 BKN050 28/22 A3000 RMK AO2 LTG DSNT S RAB50 SLP155 P0000 T02780222
KDWH 211753Z VRB05KT 10SM BKN027 BKN036 31/23 A3002 RMK AO2 SLP163 60000 T03060228 10306 20228 58009


Page loaded:  05:06 UTC  |   10:06 PM Pacific  |   11:06 PM Mountain  |   12:06 AM Central  |   01:06 AM Eastern

 

ADVISORIES

FORECASTS

FORECASTS

OBSERVATIONS

USER TOOLS

ABOUT US